createdAt,value
2018-12-25T00:02:11.501Z,5.53
2018-12-25T00:04:38.325Z,5.50
2018-12-25T00:07:05.276Z,5.40
2018-12-25T00:09:32.102Z,4.33
2018-12-25T00:11:58.907Z,4.90
2018-12-25T00:14:28.631Z,5.03
2018-12-25T00:16:55.777Z,4.50
2018-12-25T00:19:22.586Z,4.77
2018-12-25T00:21:49.528Z,6.10
2018-12-25T00:24:16.362Z,5.50
2018-12-25T00:26:43.227Z,4.37
2018-12-25T00:29:10.147Z,5.17
2018-12-25T00:31:36.987Z,5.07
2018-12-25T00:34:03.841Z,5.57
2018-12-25T00:36:33.621Z,8.33
2018-12-25T00:39:00.513Z,5.57
2018-12-25T00:41:27.320Z,5.23
2018-12-25T00:43:54.212Z,4.50
2018-12-25T00:46:21.014Z,4.17
2018-12-25T00:48:47.847Z,4.60
2018-12-25T00:51:14.684Z,4.13
2018-12-25T00:53:41.596Z,4.43
2018-12-25T00:56:08.511Z,3.70
2018-12-25T00:58:35.348Z,4.27
2018-12-25T01:01:02.173Z,5.43
2018-12-25T01:03:28.989Z,5.03
2018-12-25T01:05:55.932Z,5.50
2018-12-25T01:08:22.825Z,5.03
2018-12-25T01:10:49.642Z,4.90
2018-12-25T01:13:16.482Z,4.80
2018-12-25T01:15:43.270Z,4.47
2018-12-25T01:18:10.078Z,3.77
2018-12-25T01:20:36.957Z,3.93
2018-12-25T01:23:03.746Z,4.30
2018-12-25T01:25:30.701Z,3.40
2018-12-25T01:27:57.579Z,3.40
2018-12-25T01:30:24.384Z,3.40
2018-12-25T01:32:51.168Z,3.27
2018-12-25T01:35:18.002Z,2.90
2018-12-25T01:37:44.802Z,3.73
2018-12-25T01:40:11.607Z,3.30
2018-12-25T01:42:38.450Z,3.20
2018-12-25T01:45:05.457Z,3.50
2018-12-25T01:47:32.282Z,3.03
2018-12-25T01:49:59.113Z,3.37
2018-12-25T01:52:25.945Z,2.97
2018-12-25T01:54:52.742Z,2.90
2018-12-25T01:57:19.565Z,3.23
2018-12-25T01:59:46.358Z,2.40
2018-12-25T02:02:13.169Z,2.67
2018-12-25T02:04:40.016Z,4.83
2018-12-25T02:07:06.955Z,2.83
2018-12-25T02:09:33.766Z,2.87
2018-12-25T02:12:00.618Z,2.93
2018-12-25T02:14:27.429Z,2.37
2018-12-25T02:16:54.255Z,2.30
2018-12-25T02:19:21.094Z,2.60
2018-12-25T02:21:47.923Z,2.40
2018-12-25T02:24:14.745Z,2.33
2018-12-25T02:26:41.601Z,3.00
2018-12-25T02:29:08.397Z,2.73
2018-12-25T02:31:35.198Z,2.40
2018-12-25T02:34:02.394Z,2.73
2018-12-25T02:36:29.399Z,2.23
2018-12-25T02:38:56.205Z,2.20
2018-12-25T02:41:23.175Z,2.13
2018-12-25T02:43:50.076Z,1.77
2018-12-25T02:46:16.990Z,2.10
2018-12-25T02:48:43.819Z,1.83
2018-12-25T02:51:10.625Z,2.90
2018-12-25T02:53:37.468Z,1.97
2018-12-25T02:56:04.513Z,2.10
2018-12-25T02:58:31.406Z,1.90
2018-12-25T03:00:58.210Z,1.80
2018-12-25T03:03:25.052Z,2.27
2018-12-25T03:05:52.075Z,1.70
2018-12-25T03:08:19.082Z,1.90
2018-12-25T03:10:46.008Z,1.90
2018-12-25T03:13:12.833Z,2.07
2018-12-25T03:15:39.897Z,2.23
2018-12-25T03:18:06.933Z,2.00
2018-12-25T03:20:33.771Z,1.80
2018-12-25T03:23:00.597Z,2.67
2018-12-25T03:25:27.517Z,2.33
2018-12-25T03:27:54.353Z,2.10
2018-12-25T03:30:21.247Z,1.93
2018-12-25T03:32:48.204Z,1.70
2018-12-25T03:35:15.133Z,2.40
2018-12-25T03:37:42.166Z,2.30
2018-12-25T03:40:09.118Z,2.00
2018-12-25T03:42:36.019Z,1.87
2018-12-25T03:45:03.189Z,1.80
2018-12-25T03:47:30.035Z,1.50
2018-12-25T03:49:56.830Z,1.63
2018-12-25T03:52:23.738Z,2.00
2018-12-25T03:54:50.573Z,1.90
2018-12-25T03:57:17.398Z,1.80
2018-12-25T03:59:44.226Z,2.27
2018-12-25T04:02:11.059Z,2.60
2018-12-25T04:04:37.873Z,2.53
2018-12-25T04:07:04.683Z,1.93
2018-12-25T04:09:31.552Z,2.63
2018-12-25T04:11:58.375Z,1.83
2018-12-25T04:14:25.215Z,2.73
2018-12-25T04:16:52.039Z,2.20
2018-12-25T04:19:18.961Z,2.07
2018-12-25T04:21:45.770Z,1.97
2018-12-25T04:24:12.607Z,3.13
2018-12-25T04:26:39.595Z,2.63
2018-12-25T04:29:06.425Z,2.20
2018-12-25T04:31:33.271Z,2.63
2018-12-25T04:34:00.139Z,2.63
2018-12-25T04:36:27.025Z,2.73
2018-12-25T04:38:53.878Z,2.00
2018-12-25T04:41:20.707Z,1.70
2018-12-25T04:43:47.519Z,2.27
2018-12-25T04:46:14.374Z,2.30
2018-12-25T04:48:41.202Z,1.90
2018-12-25T04:51:08.008Z,1.83
2018-12-25T04:53:34.967Z,2.73
2018-12-25T04:56:01.966Z,2.50
2018-12-25T04:58:28.778Z,2.03
2018-12-25T05:00:55.629Z,2.00
2018-12-25T05:03:22.553Z,2.57
2018-12-25T05:05:49.487Z,2.23
2018-12-25T05:08:16.384Z,2.00
2018-12-25T05:10:43.247Z,1.63
2018-12-25T05:13:10.055Z,2.10
2018-12-25T05:15:37.006Z,1.23
2018-12-25T05:18:04.051Z,2.20
2018-12-25T05:20:37.822Z,2.20
2018-12-25T05:22:59.614Z,1.70
2018-12-25T05:25:26.413Z,3.43
2018-12-25T05:27:53.304Z,2.57
2018-12-25T05:30:20.242Z,1.60
2018-12-25T05:32:47.035Z,2.10
2018-12-25T05:35:13.835Z,2.00
2018-12-25T05:37:40.726Z,1.83
2018-12-25T05:40:07.650Z,1.40
2018-12-25T05:42:34.494Z,1.80
2018-12-25T05:45:01.452Z,2.30
2018-12-25T05:47:28.248Z,2.10
2018-12-25T05:49:55.067Z,1.50
2018-12-25T05:52:21.923Z,2.33
2018-12-25T05:54:48.719Z,1.90
2018-12-25T05:57:15.527Z,2.43
2018-12-25T05:59:42.357Z,1.97
2018-12-25T06:02:09.182Z,2.20
2018-12-25T06:04:36.089Z,2.30
2018-12-25T06:07:03.051Z,1.90
2018-12-25T06:09:29.858Z,2.20
2018-12-25T06:11:56.670Z,2.07
2018-12-25T06:14:23.524Z,2.00
2018-12-25T06:16:50.442Z,2.87
2018-12-25T06:19:17.255Z,2.27
2018-12-25T06:21:44.098Z,1.87
2018-12-25T06:24:10.909Z,1.60
2018-12-25T06:26:37.713Z,1.90
2018-12-25T06:29:04.657Z,1.83
2018-12-25T06:31:31.586Z,1.90
2018-12-25T06:33:58.386Z,1.77
2018-12-25T06:36:25.288Z,1.80
2018-12-25T06:38:52.104Z,2.00
2018-12-25T06:41:18.922Z,2.23
2018-12-25T06:43:45.759Z,1.70
2018-12-25T06:46:12.567Z,2.73
2018-12-25T06:48:39.365Z,3.50
2018-12-25T06:51:06.213Z,1.80
2018-12-25T06:53:33.104Z,1.47
2018-12-25T06:56:00.043Z,2.47
2018-12-25T06:58:26.890Z,2.07
2018-12-25T07:00:53.716Z,2.00
2018-12-25T07:03:20.594Z,2.03
2018-12-25T07:05:47.457Z,1.80
2018-12-25T07:08:14.255Z,1.73
2018-12-25T07:10:41.150Z,1.83
2018-12-25T07:13:08.009Z,1.80
2018-12-25T07:15:34.942Z,2.80
2018-12-25T07:18:01.958Z,1.93
2018-12-25T07:20:28.939Z,1.83
2018-12-25T07:22:55.904Z,1.57
2018-12-25T07:25:22.705Z,1.73
2018-12-25T07:27:49.637Z,1.97
2018-12-25T07:30:16.448Z,2.00
2018-12-25T07:32:43.233Z,2.33
2018-12-25T07:35:10.201Z,1.60
2018-12-25T07:37:37.046Z,1.73
2018-12-25T07:40:04.134Z,2.17
2018-12-25T07:42:31.286Z,2.07
2018-12-25T07:44:58.089Z,1.47
2018-12-25T07:47:24.877Z,2.20
2018-12-25T07:49:51.713Z,1.90
2018-12-25T07:52:18.556Z,1.87
2018-12-25T07:54:45.362Z,1.80
2018-12-25T07:57:12.243Z,1.47
2018-12-25T07:59:39.108Z,1.83
2018-12-25T08:02:06.024Z,1.40
2018-12-25T08:04:32.882Z,1.43
2018-12-25T08:06:59.710Z,2.23
2018-12-25T08:09:26.498Z,1.63
2018-12-25T08:11:53.489Z,1.60
2018-12-25T08:14:20.328Z,1.57
2018-12-25T08:16:47.265Z,2.20
2018-12-25T08:19:14.121Z,2.27
2018-12-25T08:21:40.930Z,1.60
2018-12-25T08:24:07.746Z,2.00
2018-12-25T08:26:34.605Z,1.83
2018-12-25T08:29:01.512Z,1.50
2018-12-25T08:31:28.317Z,2.80
2018-12-25T08:33:55.187Z,1.93
2018-12-25T08:36:22.096Z,1.83
2018-12-25T08:38:48.887Z,2.00
2018-12-25T08:41:15.813Z,1.67
2018-12-25T08:43:42.642Z,1.40
2018-12-25T08:46:09.450Z,2.17
2018-12-25T08:48:36.375Z,2.30
2018-12-25T08:51:03.364Z,1.57
2018-12-25T08:53:30.182Z,1.93
2018-12-25T08:55:57.038Z,1.90
2018-12-25T08:58:23.855Z,1.70
2018-12-25T09:00:50.642Z,2.00
2018-12-25T09:03:17.531Z,1.97
2018-12-25T09:05:44.414Z,1.30
2018-12-25T09:08:11.207Z,1.40
2018-12-25T09:10:38.059Z,1.67
2018-12-25T09:13:04.926Z,1.80
2018-12-25T09:15:31.793Z,1.77
2018-12-25T09:17:58.643Z,2.00
2018-12-25T09:20:25.435Z,1.43
2018-12-25T09:22:52.335Z,2.07
2018-12-25T09:25:19.185Z,1.87
2018-12-25T09:27:45.984Z,2.00
2018-12-25T09:30:12.783Z,2.13
2018-12-25T09:32:39.621Z,2.43
2018-12-25T09:35:06.521Z,2.17
2018-12-25T09:37:33.446Z,2.03
2018-12-25T09:40:00.311Z,1.90
2018-12-25T09:42:27.125Z,2.30
2018-12-25T09:44:53.922Z,1.93
2018-12-25T09:47:20.874Z,1.90
2018-12-25T09:49:47.698Z,1.90
2018-12-25T09:52:14.597Z,1.97
2018-12-25T09:54:41.557Z,2.07
2018-12-25T09:57:08.359Z,3.17
2018-12-25T09:59:35.189Z,3.47
2018-12-25T10:02:02.014Z,2.50
2018-12-25T10:04:28.809Z,2.50
2018-12-25T10:06:55.643Z,2.40
2018-12-25T10:09:22.485Z,2.20
2018-12-25T10:11:49.308Z,2.20
2018-12-25T10:14:16.209Z,2.77
2018-12-25T10:16:43.069Z,3.03
2018-12-25T10:19:09.887Z,3.37
2018-12-25T10:21:36.706Z,2.47
2018-12-25T10:24:03.580Z,2.53
2018-12-25T10:26:30.478Z,2.03
2018-12-25T10:28:57.298Z,3.60
2018-12-25T10:31:24.151Z,2.83
2018-12-25T10:33:50.950Z,2.40
2018-12-25T10:36:17.762Z,2.97
2018-12-25T10:38:44.709Z,2.10
2018-12-25T10:41:11.525Z,2.50
2018-12-25T10:43:38.306Z,2.00
2018-12-25T10:46:05.155Z,1.63
2018-12-25T10:48:32.058Z,2.67
2018-12-25T10:50:58.870Z,3.00
2018-12-25T10:53:26.101Z,2.50
2018-12-25T10:55:53.143Z,3.00
2018-12-25T10:58:20.065Z,2.03
2018-12-25T11:00:51.248Z,2.10
2018-12-25T11:03:18.049Z,2.50
2018-12-25T11:05:44.862Z,2.50
2018-12-25T11:08:11.718Z,3.07
2018-12-25T11:10:38.520Z,2.30
2018-12-25T11:13:05.350Z,2.03
2018-12-25T11:15:32.178Z,2.80
2018-12-25T11:17:58.987Z,3.03
2018-12-25T11:20:25.887Z,2.23
2018-12-25T11:22:52.721Z,2.00
2018-12-25T11:25:19.526Z,2.50
2018-12-25T11:27:46.447Z,2.80
2018-12-25T11:30:13.282Z,2.43
2018-12-25T11:32:40.106Z,3.50
2018-12-25T11:35:07.051Z,3.20
2018-12-25T11:37:33.913Z,4.00
2018-12-25T11:40:00.738Z,3.23
2018-12-25T11:42:27.546Z,4.20
2018-12-25T11:44:54.401Z,3.40
2018-12-25T11:47:21.318Z,3.47
2018-12-25T11:49:48.135Z,3.27
2018-12-25T11:52:14.963Z,3.93
2018-12-25T11:54:41.979Z,3.40
2018-12-25T11:57:08.777Z,2.17
2018-12-25T11:59:35.635Z,2.80
2018-12-25T12:02:02.806Z,4.50
2018-12-25T12:04:29.619Z,2.30
2018-12-25T12:06:56.471Z,3.00
2018-12-25T12:09:23.253Z,2.77
2018-12-25T12:11:50.063Z,3.57
2018-12-25T12:14:16.927Z,3.57
2018-12-25T12:16:43.738Z,2.43
2018-12-25T12:19:10.548Z,3.40
2018-12-25T12:21:37.497Z,2.67
2018-12-25T12:24:04.302Z,2.17
2018-12-25T12:26:31.234Z,2.83
2018-12-25T12:28:58.053Z,4.77
2018-12-25T12:31:24.861Z,2.60
2018-12-25T12:33:51.653Z,3.47
2018-12-25T12:36:18.598Z,2.93
2018-12-25T12:39:05.732Z,2.80
2018-12-25T12:41:32.594Z,3.33
2018-12-25T12:43:59.402Z,2.40
2018-12-25T12:46:26.198Z,2.10
2018-12-25T12:48:53.045Z,2.43
2018-12-25T12:51:19.873Z,2.83
2018-12-25T12:53:46.683Z,2.97
2018-12-25T12:56:13.518Z,1.77
2018-12-25T12:58:40.336Z,2.30
2018-12-25T13:01:07.250Z,1.83
2018-12-25T13:03:34.233Z,2.20
2018-12-25T13:06:01.037Z,2.63
2018-12-25T13:08:28.007Z,1.53
2018-12-25T13:10:54.829Z,2.93
2018-12-25T13:13:21.743Z,2.60
2018-12-25T13:15:48.746Z,1.67
2018-12-25T13:18:15.625Z,2.30
2018-12-25T13:20:42.542Z,2.50
2018-12-25T13:23:09.446Z,3.10
2018-12-25T13:25:36.420Z,2.97
2018-12-25T13:28:03.316Z,1.83
2018-12-25T13:30:30.110Z,2.60
2018-12-25T13:32:57.162Z,2.97
2018-12-25T13:35:23.997Z,3.00
2018-12-25T13:37:50.807Z,2.73
2018-12-25T13:40:17.691Z,3.23
2018-12-25T13:42:44.506Z,2.57
2018-12-25T13:45:11.534Z,4.30
2018-12-25T13:47:38.382Z,2.97
2018-12-25T13:50:07.958Z,2.63
2018-12-25T13:52:34.786Z,3.57
2018-12-25T13:55:01.695Z,2.63
2018-12-25T13:57:28.591Z,3.10
2018-12-25T13:59:55.395Z,2.87
2018-12-25T14:02:22.232Z,2.13
2018-12-25T14:04:49.038Z,3.83
2018-12-25T14:07:15.947Z,4.10
2018-12-25T14:09:42.809Z,3.20
2018-12-25T14:12:09.621Z,2.97
2018-12-25T14:14:36.546Z,3.23
2018-12-25T14:17:03.498Z,2.80
2018-12-25T14:19:30.322Z,2.37
2018-12-25T14:21:57.123Z,2.80
2018-12-25T14:24:23.977Z,2.70
2018-12-25T14:26:50.964Z,2.20
2018-12-25T14:29:17.871Z,2.77
2018-12-25T14:31:44.694Z,2.80
2018-12-25T14:34:11.605Z,2.57
2018-12-25T14:36:38.642Z,3.23
2018-12-25T14:39:06.549Z,2.83
2018-12-25T14:41:33.367Z,2.87
2018-12-25T14:44:05.173Z,2.47
2018-12-25T14:46:29.005Z,3.00
2018-12-25T14:48:55.939Z,3.97
2018-12-25T14:51:22.890Z,4.10
2018-12-25T14:53:49.713Z,2.57
2018-12-25T14:56:50.578Z,2.63
2018-12-25T14:59:58.662Z,3.37
2018-12-25T15:02:25.459Z,3.30
2018-12-25T15:05:11.922Z,3.17
2018-12-25T15:07:38.735Z,3.37
2018-12-25T15:10:06.439Z,2.93
2018-12-25T15:12:33.397Z,3.17
2018-12-25T15:15:00.195Z,2.67
2018-12-25T15:17:26.989Z,2.60
2018-12-25T15:19:53.831Z,3.20
2018-12-25T15:22:20.734Z,3.50
2018-12-25T15:24:47.546Z,3.70
2018-12-25T15:27:14.442Z,3.07
2018-12-25T15:29:41.257Z,4.03
2018-12-25T15:32:08.051Z,3.03
2018-12-25T15:34:35.025Z,2.70
2018-12-25T15:37:02.820Z,3.20
2018-12-25T15:39:29.854Z,2.63
2018-12-25T15:41:56.836Z,2.67
2018-12-25T15:44:23.704Z,3.80
2018-12-25T15:46:50.629Z,3.00
2018-12-25T15:49:17.454Z,2.30
2018-12-25T15:51:44.259Z,2.23
2018-12-25T15:54:11.073Z,2.93
2018-12-25T15:56:38.018Z,2.80
2018-12-25T15:59:04.827Z,2.63
2018-12-25T16:01:31.613Z,3.03
2018-12-25T16:03:58.452Z,3.07
2018-12-25T16:06:25.270Z,2.57
2018-12-25T16:08:52.091Z,2.83
2018-12-25T16:11:18.927Z,3.70
2018-12-25T16:13:46.002Z,2.90
2018-12-25T16:16:12.901Z,2.70
2018-12-25T16:18:39.790Z,2.20
2018-12-25T16:21:06.763Z,2.67
2018-12-25T16:23:33.694Z,3.10
2018-12-25T16:26:00.641Z,4.27
2018-12-25T16:28:27.471Z,3.00
2018-12-25T16:30:54.271Z,2.47
2018-12-25T16:33:21.124Z,4.80
2018-12-25T16:35:48.081Z,4.00
2018-12-25T16:38:14.895Z,3.60
2018-12-25T16:40:41.861Z,3.07
2018-12-25T16:43:08.648Z,4.30
2018-12-25T16:45:35.468Z,3.30
2018-12-25T16:48:02.407Z,3.90
2018-12-25T16:50:29.350Z,3.10
2018-12-25T16:52:56.149Z,2.90
2018-12-25T16:55:23.017Z,3.07
2018-12-25T16:57:49.793Z,4.80
2018-12-25T17:00:16.590Z,3.77
2018-12-25T17:02:43.486Z,3.93
2018-12-25T17:05:10.413Z,3.03
2018-12-25T17:07:37.235Z,3.20
2018-12-25T17:10:04.791Z,3.43
2018-12-25T17:12:31.602Z,2.97
2018-12-25T17:14:58.406Z,2.90
2018-12-25T17:17:25.241Z,3.33
2018-12-25T17:19:52.062Z,3.63
2018-12-25T17:22:18.898Z,4.27
2018-12-25T17:24:45.749Z,3.93
2018-12-25T17:27:12.557Z,3.60
2018-12-25T17:29:39.374Z,3.80
2018-12-25T17:32:06.296Z,3.90
2018-12-25T17:34:33.117Z,3.40
2018-12-25T17:36:59.911Z,3.83
2018-12-25T17:39:26.770Z,3.63
2018-12-25T17:41:53.706Z,3.07
2018-12-25T17:44:20.530Z,3.63
2018-12-25T17:46:47.491Z,3.00
2018-12-25T17:49:14.264Z,4.27
2018-12-25T17:51:41.103Z,3.33
2018-12-25T17:54:10.913Z,3.33
2018-12-25T17:56:37.909Z,3.50
2018-12-25T17:59:05.230Z,3.07
2018-12-25T18:01:32.094Z,2.67
2018-12-25T18:03:58.900Z,3.37
2018-12-25T18:06:25.702Z,3.30
2018-12-25T18:08:52.548Z,3.20
2018-12-25T18:11:19.374Z,3.00
2018-12-25T18:13:46.181Z,2.90
2018-12-25T18:16:13.158Z,2.80
2018-12-25T18:18:39.961Z,3.40
2018-12-25T18:21:06.799Z,2.67
2018-12-25T18:23:33.616Z,3.03
2018-12-25T18:26:00.439Z,2.87
2018-12-25T18:28:27.229Z,2.97
2018-12-25T18:30:54.106Z,2.17
2018-12-25T18:33:20.935Z,2.80
2018-12-25T18:35:47.945Z,2.50
2018-12-25T18:38:14.863Z,2.47
2018-12-25T18:40:41.774Z,2.67
2018-12-25T18:43:08.572Z,2.47
2018-12-25T18:45:35.422Z,2.30
2018-12-25T18:48:02.227Z,2.77
2018-12-25T18:50:29.160Z,2.27
2018-12-25T18:52:56.013Z,2.33
2018-12-25T18:55:22.849Z,2.07
2018-12-25T18:57:49.783Z,2.60
2018-12-25T19:00:16.732Z,2.40
2018-12-25T19:02:43.545Z,2.80
2018-12-25T19:05:10.465Z,2.37
2018-12-25T19:07:37.422Z,3.40
2018-12-25T19:10:06.694Z,2.43
2018-12-25T19:12:33.486Z,3.00
2018-12-25T19:15:19.868Z,2.30
2018-12-25T19:17:46.810Z,2.27
2018-12-25T19:20:14.047Z,2.60
2018-12-25T19:22:40.980Z,2.30
2018-12-25T19:25:07.815Z,2.40
2018-12-25T19:27:36.934Z,1.87
2018-12-25T19:30:05.198Z,2.13
2018-12-25T19:32:32.007Z,1.90
2018-12-25T19:34:58.923Z,2.90
2018-12-25T19:37:25.855Z,2.00
2018-12-25T19:39:52.688Z,2.40
2018-12-25T19:42:19.469Z,2.00
2018-12-25T19:44:46.395Z,3.17
2018-12-25T19:47:13.385Z,2.40
2018-12-25T19:49:40.401Z,1.47
2018-12-25T19:52:07.484Z,2.20
2018-12-25T19:54:34.526Z,2.30
2018-12-25T19:57:01.573Z,1.60
2018-12-25T19:59:28.721Z,2.13
2018-12-25T20:01:55.746Z,1.97
2018-12-25T20:04:42.429Z,2.50
2018-12-25T20:07:50.606Z,2.30
2018-12-25T20:11:08.037Z,1.97
2018-12-25T20:14:20.047Z,2.33
2018-12-25T20:17:07.208Z,1.80
2018-12-25T20:20:05.790Z,1.80
2018-12-25T20:23:09.478Z,2.67
2018-12-25T20:25:52.378Z,2.77
2018-12-25T20:28:34.239Z,2.37
2018-12-25T20:31:58.434Z,1.93
2018-12-25T20:34:34.229Z,3.37
2018-12-25T20:37:40.189Z,2.00
2018-12-25T20:40:37.652Z,2.00
2018-12-25T20:44:04.978Z,3.20
2018-12-25T20:47:01.459Z,2.40
2018-12-25T20:50:25.486Z,2.27
2018-12-25T20:53:28.399Z,2.10
2018-12-25T20:56:25.138Z,2.13
2018-12-25T20:59:35.191Z,2.17
2018-12-25T21:02:58.783Z,2.30
2018-12-25T21:06:11.187Z,2.77
2018-12-25T21:09:39.158Z,2.20
2018-12-25T21:12:54.146Z,2.87
2018-12-25T21:16:15.090Z,2.60
2018-12-25T21:19:32.943Z,1.80
2018-12-25T21:22:43.849Z,2.20
2018-12-25T21:25:47.610Z,2.17
2018-12-25T21:28:13.733Z,2.10
2018-12-25T21:30:41.042Z,2.07
2018-12-25T21:33:08.194Z,2.20
2018-12-25T21:35:35.114Z,2.30
2018-12-25T21:38:02.251Z,2.80
2018-12-25T21:40:29.284Z,1.77
2018-12-25T21:42:56.789Z,2.03
2018-12-25T21:45:23.973Z,2.37
2018-12-25T21:47:51.191Z,2.03
2018-12-25T21:50:18.300Z,2.17
2018-12-25T21:52:45.322Z,1.60
2018-12-25T21:55:18.576Z,2.33
2018-12-25T21:57:41.677Z,1.80
2018-12-25T22:00:11.982Z,1.90
2018-12-25T22:02:39.454Z,1.87
2018-12-25T22:05:07.114Z,1.93
2018-12-25T22:07:34.038Z,2.10
2018-12-25T22:10:00.873Z,3.90
2018-12-25T22:12:27.673Z,1.87
2018-12-25T22:14:54.486Z,1.77
2018-12-25T22:17:21.446Z,3.00
2018-12-25T22:19:48.246Z,1.83
2018-12-25T22:22:15.176Z,2.00
2018-12-25T22:24:42.041Z,1.83
2018-12-25T22:27:08.843Z,1.87
2018-12-25T22:29:35.752Z,1.60
2018-12-25T22:32:02.674Z,1.67
2018-12-25T22:34:32.425Z,2.07
2018-12-25T22:36:59.340Z,1.80
2018-12-25T22:39:26.541Z,1.60
2018-12-25T22:41:53.414Z,1.20
2018-12-25T22:44:20.208Z,1.83
2018-12-25T22:46:47.068Z,1.87
2018-12-25T22:49:14.003Z,1.67
2018-12-25T22:51:40.914Z,1.60
2018-12-25T22:54:07.750Z,1.73
2018-12-25T22:56:34.561Z,2.03
2018-12-25T22:59:01.578Z,1.30
2018-12-25T23:01:28.674Z,2.20
2018-12-25T23:03:55.569Z,1.87
2018-12-25T23:06:22.495Z,1.43
2018-12-25T23:08:49.437Z,1.73
2018-12-25T23:11:16.275Z,2.17
2018-12-25T23:13:43.094Z,1.70
2018-12-25T23:16:10.245Z,2.00
2018-12-25T23:18:37.154Z,1.60
2018-12-25T23:21:03.960Z,1.90
2018-12-25T23:23:30.790Z,1.13
2018-12-25T23:25:57.608Z,1.47
2018-12-25T23:28:24.413Z,1.70
2018-12-25T23:30:51.382Z,2.23
2018-12-25T23:33:18.312Z,1.87
2018-12-25T23:35:45.119Z,1.90
2018-12-25T23:38:12.043Z,1.70
2018-12-25T23:40:38.900Z,1.30
2018-12-25T23:43:05.724Z,1.60
2018-12-25T23:45:32.672Z,1.63
2018-12-25T23:47:59.592Z,2.07
2018-12-25T23:50:26.398Z,1.83
2018-12-25T23:52:53.355Z,1.67
2018-12-25T23:55:20.288Z,1.93
2018-12-25T23:57:47.261Z,1.80
